createdAt,value
2019-04-03T00:02:54.802Z,9.20
2019-04-03T00:07:59.625Z,10.93
2019-04-03T00:13:05.635Z,10.97
2019-04-03T00:18:11.447Z,14.87
2019-04-03T00:23:17.901Z,13.30
2019-04-03T00:28:24.224Z,11.63
2019-04-03T00:33:31.072Z,14.03
2019-04-03T00:38:37.613Z,15.83
2019-04-03T00:43:44.500Z,13.97
2019-04-03T00:48:52.316Z,13.27
2019-04-03T00:54:01.282Z,15.43
2019-04-03T00:59:07.506Z,13.43
2019-04-03T01:04:14.053Z,13.87
2019-04-03T01:09:19.468Z,12.77
2019-04-03T01:14:25.868Z,17.17
2019-04-03T01:19:31.843Z,11.97
2019-04-03T01:24:39.064Z,11.30
2019-04-03T01:29:44.874Z,8.70
2019-04-03T01:34:50.370Z,9.20
2019-04-03T01:39:55.097Z,8.43
2019-04-03T01:45:01.569Z,7.93
2019-04-03T01:50:08.161Z,6.73
2019-04-03T01:55:14.320Z,6.57
2019-04-03T02:00:20.691Z,8.03
2019-04-03T02:05:27.426Z,8.07
2019-04-03T02:10:33.195Z,8.63
2019-04-03T02:15:38.979Z,7.23
2019-04-03T02:20:44.782Z,7.97
2019-04-03T02:25:51.664Z,10.90
2019-04-03T02:31:01.249Z,9.13
2019-04-03T02:36:06.971Z,8.43
2019-04-03T02:41:13.431Z,9.10
2019-04-03T02:46:19.832Z,6.17
2019-04-03T02:51:26.012Z,5.50
2019-04-03T02:56:32.101Z,5.53
2019-04-03T03:01:40.473Z,5.70
2019-04-03T03:06:46.125Z,4.43
2019-04-03T03:11:56.303Z,5.50
2019-04-03T03:17:01.357Z,3.97
2019-04-03T03:22:07.585Z,5.30
2019-04-03T03:27:16.009Z,4.70
2019-04-03T03:32:31.052Z,4.57
2019-04-03T03:37:34.105Z,5.27
2019-04-03T03:42:40.854Z,5.50
2019-04-03T03:47:47.656Z,5.00
2019-04-03T03:52:58.405Z,4.67
2019-04-03T03:58:06.038Z,4.73
2019-04-03T04:03:14.541Z,4.40
2019-04-03T04:08:21.536Z,4.27
2019-04-03T04:13:27.927Z,4.10
2019-04-03T04:18:33.533Z,4.40
2019-04-03T04:23:38.961Z,5.17
2019-04-03T04:34:50.644Z,4.77
2019-04-03T04:39:59.594Z,6.03
2019-04-03T04:45:06.026Z,6.17
2019-04-03T04:50:11.214Z,5.27
2019-04-03T04:55:17.389Z,5.37
2019-04-03T05:00:24.094Z,6.17
2019-04-03T05:05:31.404Z,5.37
2019-04-03T05:10:38.578Z,7.47
2019-04-03T05:15:46.447Z,5.83
2019-04-03T05:20:54.044Z,5.97
2019-04-03T05:26:01.866Z,6.63
2019-04-03T05:31:08.918Z,5.83
2019-04-03T05:36:17.358Z,6.13
2019-04-03T05:41:22.464Z,5.80
2019-04-03T05:46:30.195Z,6.63
2019-04-03T05:51:35.850Z,6.40
2019-04-03T05:56:43.400Z,6.30
2019-04-03T06:01:50.761Z,5.97
2019-04-03T06:06:57.069Z,5.73
2019-04-03T06:12:04.313Z,5.90
2019-04-03T06:17:11.871Z,5.83
2019-04-03T06:22:21.074Z,6.53
2019-04-03T06:27:28.966Z,6.93
2019-04-03T06:32:36.125Z,6.93
2019-04-03T06:37:42.736Z,7.27
2019-04-03T06:42:48.984Z,6.13
2019-04-03T06:47:54.978Z,6.73
2019-04-03T06:53:00.619Z,6.13
2019-04-03T06:58:07.138Z,6.63
2019-04-03T07:03:12.783Z,7.87
2019-04-03T07:08:30.178Z,8.53
2019-04-03T07:13:30.065Z,8.10
2019-04-03T07:18:37.073Z,6.57
2019-04-03T07:23:44.398Z,5.10
2019-04-03T07:28:50.617Z,6.57
2019-04-03T07:33:58.164Z,5.83
2019-04-03T07:39:05.434Z,3.90
2019-04-03T07:44:11.217Z,4.87
2019-04-03T07:49:18.421Z,3.83
2019-04-03T07:54:26.306Z,4.97
2019-04-03T07:59:35.194Z,4.80
2019-04-03T08:04:40.868Z,6.30
2019-04-03T08:09:46.895Z,4.30
2019-04-03T08:14:53.883Z,4.10
2019-04-03T08:19:59.985Z,4.63
2019-04-03T08:25:06.653Z,5.00
2019-04-03T08:30:13.765Z,4.07
2019-04-03T08:35:23.333Z,6.60
2019-04-03T08:40:28.059Z,5.63
2019-04-03T08:45:34.167Z,5.50
2019-04-03T08:50:40.556Z,5.50
2019-04-03T08:55:46.951Z,6.23
2019-04-03T09:00:52.674Z,5.20
2019-04-03T09:05:59.853Z,6.80
2019-04-03T09:11:07.313Z,6.93
2019-04-03T09:16:13.601Z,7.00
2019-04-03T09:21:22.049Z,7.37
2019-04-03T09:26:32.999Z,9.83
2019-04-03T09:31:37.484Z,6.90
2019-04-03T09:36:43.340Z,3.40
2019-04-03T09:41:50.930Z,7.23
2019-04-03T09:46:58.924Z,7.13
2019-04-03T09:52:04.841Z,6.00
2019-04-03T09:57:11.040Z,6.77
2019-04-03T10:02:20.184Z,7.10
2019-04-03T10:07:27.952Z,7.33
2019-04-03T10:12:35.647Z,9.77
2019-04-03T10:17:41.216Z,7.73
2019-04-03T10:22:47.633Z,9.50
2019-04-03T10:27:54.478Z,8.77
2019-04-03T10:33:00.389Z,8.67
2019-04-03T10:38:07.985Z,7.90
2019-04-03T10:43:16.046Z,7.93
2019-04-03T10:48:22.553Z,8.80
2019-04-03T10:53:29.040Z,8.30
2019-04-03T10:58:35.705Z,9.50
2019-04-03T11:03:42.750Z,8.37
2019-04-03T11:08:49.424Z,10.53
2019-04-03T11:13:54.885Z,9.40
2019-04-03T11:19:05.081Z,6.83
2019-04-03T11:24:08.185Z,4.90
2019-04-03T11:29:17.065Z,5.20
2019-04-03T11:34:23.543Z,4.47
2019-04-03T11:39:29.987Z,4.87
2019-04-03T11:44:37.133Z,4.47
2019-04-03T11:49:43.506Z,5.40
2019-04-03T11:54:52.338Z,6.00
2019-04-03T11:59:58.588Z,6.90
2019-04-03T12:05:04.983Z,5.37
2019-04-03T12:10:12.522Z,5.97
2019-04-03T12:15:21.121Z,4.67
2019-04-03T12:20:27.263Z,2.23
2019-04-03T12:25:34.836Z,3.33
2019-04-03T12:30:41.807Z,1.93
2019-04-03T12:35:47.566Z,1.40
2019-04-03T12:40:53.692Z,1.93
2019-04-03T12:46:02.255Z,1.50
2019-04-03T12:51:06.011Z,1.90
2019-04-03T12:56:11.377Z,1.73
2019-04-03T13:01:18.426Z,2.40
2019-04-03T13:06:25.743Z,1.70
2019-04-03T13:11:32.941Z,1.43
2019-04-03T13:16:41.744Z,1.30
2019-04-03T13:21:47.128Z,1.37
2019-04-03T13:26:53.090Z,1.60
2019-04-03T13:31:59.620Z,2.07
2019-04-03T13:37:05.413Z,1.47
2019-04-03T13:42:13.249Z,1.50
2019-04-03T13:47:18.532Z,2.53
2019-04-03T13:52:37.870Z,2.70
2019-04-03T13:57:32.153Z,2.50
2019-04-03T14:02:38.676Z,2.63
2019-04-03T14:07:46.210Z,3.13
2019-04-03T14:12:52.562Z,2.50
2019-04-03T14:17:59.596Z,2.70
2019-04-03T14:23:06.639Z,2.40
2019-04-03T14:28:12.337Z,3.30
2019-04-03T14:33:20.660Z,3.27
2019-04-03T14:38:29.089Z,3.70
2019-04-03T14:43:35.684Z,3.43
2019-04-03T14:48:41.636Z,3.23
2019-04-03T14:53:47.736Z,3.03
2019-04-03T14:58:53.833Z,2.60
2019-04-03T15:04:01.831Z,3.83
2019-04-03T15:09:10.251Z,2.77
2019-04-03T15:14:17.801Z,2.43
2019-04-03T15:19:25.104Z,3.07
2019-04-03T15:24:32.645Z,2.20
2019-04-03T15:29:38.850Z,2.07
2019-04-03T15:34:45.366Z,3.03
2019-04-03T15:39:57.024Z,2.13
2019-04-03T15:45:00.017Z,2.13
2019-04-03T15:50:07.429Z,4.20
2019-04-03T15:55:16.991Z,1.67
2019-04-03T16:00:34.790Z,2.13
2019-04-03T16:05:41.986Z,1.50
2019-04-03T16:10:48.482Z,1.30
2019-04-03T16:15:58.492Z,3.00
2019-04-03T16:21:03.844Z,2.80
2019-04-03T16:26:10.119Z,2.27
2019-04-03T16:31:19.757Z,1.93
2019-04-03T16:36:25.937Z,1.70
2019-04-03T16:41:31.456Z,2.00
2019-04-03T16:46:39.848Z,1.47
2019-04-03T16:51:45.627Z,2.23
2019-04-03T16:56:52.207Z,2.23
2019-04-03T17:01:57.803Z,1.40
2019-04-03T17:07:03.058Z,1.63
2019-04-03T17:12:08.837Z,2.20
2019-04-03T17:17:15.623Z,1.90
2019-04-03T17:22:22.554Z,2.87
2019-04-03T17:27:30.812Z,2.53
2019-04-03T17:32:37.641Z,2.33
2019-04-03T17:37:43.897Z,2.13
2019-04-03T17:42:49.157Z,1.90
2019-04-03T17:47:55.964Z,2.30
2019-04-03T17:53:01.361Z,3.17
2019-04-03T17:58:06.557Z,2.00
2019-04-03T18:03:14.229Z,1.50
2019-04-03T18:08:21.682Z,1.37
2019-04-03T18:13:27.721Z,1.33
2019-04-03T18:18:34.319Z,2.20
2019-04-03T18:23:48.628Z,2.60
2019-04-03T18:28:55.015Z,1.63
2019-04-03T18:34:01.242Z,1.43
2019-04-03T18:39:15.502Z,1.40
2019-04-03T18:44:26.032Z,1.20
2019-04-03T18:49:32.365Z,1.57
2019-04-03T18:54:42.134Z,3.23
2019-04-03T18:59:46.401Z,3.00
2019-04-03T19:05:01.690Z,2.00
2019-04-03T19:10:07.079Z,3.20
2019-04-03T19:15:08.055Z,2.37
2019-04-03T19:20:15.495Z,2.20
2019-04-03T19:25:22.243Z,1.63
2019-04-03T19:30:28.716Z,1.63
2019-04-03T19:35:34.983Z,1.67
2019-04-03T19:40:41.378Z,1.80
2019-04-03T19:45:47.897Z,1.30
2019-04-03T19:50:54.331Z,1.47
2019-04-03T19:56:00.706Z,1.70
2019-04-03T20:01:09.348Z,1.57
2019-04-03T20:06:16.236Z,2.37
2019-04-03T20:11:30.317Z,1.63
2019-04-03T20:16:37.004Z,1.43
2019-04-03T20:21:42.864Z,1.67
2019-04-03T20:26:49.201Z,2.17
2019-04-03T20:31:56.473Z,2.13
2019-04-03T20:37:02.148Z,1.60
2019-04-03T20:42:09.719Z,1.87
2019-04-03T20:47:16.254Z,2.23
2019-04-03T20:52:22.326Z,2.77
2019-04-03T20:57:31.078Z,4.03
2019-04-03T21:02:41.190Z,2.30
2019-04-03T21:07:45.111Z,2.63
2019-04-03T21:12:52.024Z,3.20
2019-04-03T21:17:58.325Z,2.50
2019-04-03T21:23:06.862Z,2.40
2019-04-03T21:28:13.340Z,4.67
2019-04-03T21:33:20.731Z,2.60
2019-04-03T21:38:27.894Z,2.93
2019-04-03T21:43:34.248Z,5.50
2019-04-03T21:48:39.968Z,3.10
2019-04-03T21:53:45.877Z,3.87
2019-04-03T21:58:53.107Z,3.00
2019-04-03T22:04:02.587Z,3.37
2019-04-03T22:09:14.685Z,3.43
2019-04-03T22:14:23.675Z,4.80
2019-04-03T22:19:29.428Z,3.57
2019-04-03T22:24:37.441Z,3.60
2019-04-03T22:29:43.671Z,3.33
2019-04-03T22:34:49.222Z,4.43
2019-04-03T22:39:56.087Z,3.97
2019-04-03T22:45:01.737Z,4.30
2019-04-03T22:50:08.280Z,4.63
2019-04-03T22:55:14.892Z,6.83
2019-04-03T23:00:20.716Z,5.60
2019-04-03T23:05:26.560Z,4.27
2019-04-03T23:10:32.116Z,4.10
2019-04-03T23:15:40.035Z,4.80
2019-04-03T23:20:45.879Z,4.83
2019-04-03T23:25:51.659Z,4.93
2019-04-03T23:30:57.291Z,4.93
2019-04-03T23:36:03.289Z,5.90
2019-04-03T23:41:10.580Z,5.73
2019-04-03T23:46:16.696Z,5.10
2019-04-03T23:51:25.481Z,4.57
2019-04-03T23:56:31.714Z,4.97
